Latest Weather Observations for Barimunya

IDW60801

Issued at 4:02 am WST Monday 31 August 2015 (issued every 30 minutes, with the page automatically refreshed every 10 minutes)

About weather observations | Map of weather stations | Latest weather observations for WA | Other Formats
Station Details ID: 505053 Name: BARIMUNYA Lat: -22.67 Lon: 119.16 Height: 629.17 m
Data from the previous 72 hours. | See also: Recent months for locations in Western Australia
Date/Time
WST
Temp
°C
App
Temp
°C
Dew
Point
Rel
Hum
%
Delta-T
°C
Wind Press
QNH
hPa
Press
MSL
hPa
Rain
since 9 am
mm
Dir
 
Spd
km/h
Gust
km/h
Spd
kts
Gust
kts
31/04:00am 16.3 13.5 3.0 41 6.3 SSW 7 11 4 6 1017.5 1015.7 0.0
31/03:30am 15.7 12.5 3.2 43 5.9 ESE 9 13 5 7 1017.5 1015.7 0.0
31/03:00am 15.9 13.1 3.0 42 6.1 SW 7 9 4 5 1017.5 1015.7 0.0
31/02:30am 16.5 13.7 3.2 41 6.3 SW 7 9 4 5 1017.5 1015.7 0.0
31/02:00am 17.1 13.8 2.7 38 6.8 SSW 9 13 5 7 1017.8 1016.0 0.0
31/01:30am 17.6 14.4 2.8 37 7.0 SSW 9 11 5 6 1018.0 1016.2 0.0
31/01:00am 17.9 14.7 3.0 37 7.1 S 9 13 5 7 1018.1 1016.3 0.0
31/12:30am 18.3 14.7 3.0 36 7.3 SSW 11 13 6 7 1018.3 1016.5 0.0
31/12:00am 18.0 16.5 3.1 37 7.1 CALM 0 0 0 0 1018.4 1016.6 0.0
 
Date/Time
WST
Temp
°C
App
Temp
°C
Dew
Point
Rel
Hum
%
Delta-T
°C
Wind Press
QNH
hPa
Press
MSL
hPa
Rain
since 9 am
mm
Dir
 
Spd
km/h
Gust
km/h
Spd
kts
Gust
kts
30/11:30pm 18.5 16.6 2.8 35 7.5 SW 2 7 1 4 1018.4 1016.6 0.0
30/11:00pm 18.7 15.4 2.5 34 7.7 SW 9 13 5 7 1018.5 1016.7 0.0
30/10:30pm 19.0 16.3 2.8 34 7.8 SW 6 9 3 5 1018.7 1016.9 0.0
30/10:00pm 19.7 16.5 3.0 33 8.1 SSE 9 15 5 8 1018.9 1017.2 0.0
30/09:30pm 20.4 17.2 3.2 32 8.4 SSW 9 17 5 9 1018.8 1017.1 0.0
30/09:00pm 20.7 17.1 3.0 31 8.6 SSW 11 15 6 8 1018.8 1017.1 0.0
30/08:30pm 20.8 18.0 3.1 31 8.6 S 7 11 4 6 1018.7 1016.9 0.0
30/08:00pm 22.0 18.1 3.2 29 9.3 SSE 13 20 7 11 1018.5 1016.7 0.0
30/07:30pm 22.3 18.7 2.9 28 9.5 SSW 11 15 6 8 1018.2 1016.4 0.0
30/07:10pm 22.6 19.0 3.2 28 9.6 S 11 13 6 7 1018.0 1016.2 0.0
30/07:00pm 22.6 19.4 3.2 28 9.6 S 9 13 5 7 1017.9 1016.1 0.0
30/06:50pm 22.9 19.8 3.4 28 9.7 SSE 9 11 5 6 1017.9 1016.1 0.0
30/06:30pm 23.3 19.7 2.7 26 10.2 S 11 13 6 7 1017.7 1015.9 0.0
30/06:00pm 24.1 20.9 2.9 25 10.5 SSE 9 11 5 6 1017.5 1015.7 0.0
30/05:30pm 24.8 21.1 2.3 23 11.1 SSE 11 15 6 8 1017.2 1015.4 0.0
30/05:00pm 25.5 21.8 2.2 22 11.6 SSW 11 17 6 9 1017.1 1015.3 0.0
30/04:30pm 26.1 22.1 2.7 22 11.8 SSE 13 19 7 10 1017.0 1015.2 0.0
30/04:00pm 26.6 23.7 2.5 21 12.1 SW 7 13 4 7 1016.9 1015.1 0.0
30/03:30pm 26.4 24.1 3.0 22 11.9 NW 4 11 2 6 1016.8 1015.0 0.0
30/03:00pm 26.1 21.3 2.7 22 11.8 SW 17 22 9 12 1016.9 1015.1 0.0
30/02:30pm 25.8 22.5 2.5 22 11.6 SE 9 17 5 9 1017.1 1015.3 0.0
30/02:00pm 25.6 23.1 3.5 24 11.2 E 6 13 3 7 1017.4 1015.5 0.0
30/01:30pm 25.4 21.9 3.4 24 11.1 ENE 11 20 6 11 1017.6 1015.8 0.0
30/01:00pm 25.6 22.2 4.1 25 11.0 WSW 11 26 6 14 1018.0 1016.2 0.0
30/12:30pm 24.0 20.4 2.8 25 10.5 WSW 11 19 6 10 1018.3 1016.5 0.0
30/12:00pm 24.0 20.2 3.9 27 10.2 SW 13 22 7 12 1018.7 1016.9 0.0
30/11:30am 23.9 20.1 3.8 27 10.2 SE 13 22 7 12 1019.4 1017.6 0.0
30/11:00am 23.6 18.4 3.5 27 10.1 SSE 20 28 11 15 1019.8 1018.0 0.0
30/10:30am 23.3 17.8 3.8 28 9.8 SSE 22 30 12 16 1020.0 1018.2 0.0
30/10:00am 22.7 17.2 3.8 29 9.5 S 22 30 12 16 1020.2 1018.5 0.0
30/09:30am 22.1 16.5 3.7 30 9.2 S 22 30 12 16 1020.2 1018.5 0.0
30/09:00am 21.0 15.1 3.7 32 8.5 S 24 33 13 18 1020.1 1018.3 0.0
30/08:30am 19.9 14.7 3.6 34 8.0 SSW 20 28 11 15 1019.8 1018.0 0.0
30/08:00am 19.0 14.8 3.6 36 7.5 SSW 15 20 8 11 1019.6 1017.8 0.0
30/07:30am 18.1 14.6 3.6 38 7.0 S 11 15 6 8 1019.3 1017.5 0.0
30/07:00am 17.4 13.6 3.7 40 6.6 SSW 13 19 7 10 1018.9 1017.2 0.0
30/06:30am 16.4 12.6 3.8 43 6.0 SSW 13 19 7 10 1018.5 1016.7 0.0
30/06:00am 13.7 11.7 4.3 53 4.5 WNW 4 9 2 5 1018.2 1016.4 0.0
30/05:30am 13.5 12.3 4.6 55 4.2 CALM 0 6 0 3 1017.9 1016.1 0.0
30/05:00am 13.5 12.3 4.6 55 4.2 CALM 0 0 0 0 1017.6 1015.8 0.0
30/04:30am 14.7 13.5 4.7 51 4.8 CALM 0 0 0 0 1017.4 1015.5 0.0
30/04:00am 14.8 13.4 5.3 53 4.6 WNW 2 7 1 4 1017.2 1015.4 0.0
30/03:30am 15.0 14.0 5.5 53 4.7 CALM 0 4 0 2 1017.2 1015.4 0.0
30/03:24am 15.0 14.0 5.5 53 4.7 CALM 0 4 0 2 1017.2 1015.4 0.0
30/03:00am 14.3 12.1 5.4 55 4.3 WNW 6 9 3 5 1017.2 1015.4 0.0
30/02:30am 15.4 13.0 5.3 51 5.0 WNW 7 7 4 4 1017.0 1015.2 0.0
30/02:00am 15.8 13.4 5.4 50 5.1 WNW 7 9 4 5 1017.2 1015.4 0.0
30/01:39am 16.2 14.1 5.8 50 5.2 WNW 6 7 3 4 1017.2 1015.4 0.0
30/01:30am 16.4 14.2 6.0 50 5.2 WNW 7 9 4 5 1017.2 1015.4 0.0
30/01:00am 17.1 16.1 7.2 52 5.1 WNW 2 7 1 4 1017.5 1015.7 0.0
30/12:30am 16.9 16.1 6.7 51 5.2 CALM 0 0 0 0 1017.7 1015.9 0.0
30/12:00am 17.5 16.4 6.7 49 5.5 WNW 2 7 1 4 1017.6 1015.8 0.0
 
Date/Time
WST
Temp
°C
App
Temp
°C
Dew
Point
Rel
Hum
%
Delta-T
°C
Wind Press
QNH
hPa
Press
MSL
hPa
Rain
since 9 am
mm
Dir
 
Spd
km/h
Gust
km/h
Spd
kts
Gust
kts
29/11:30pm 17.8 17.1 7.0 49 5.6 CALM 0 0 0 0 1017.7 1015.9 0.0
29/11:00pm 18.3 17.5 6.5 46 6.0 CALM 0 0 0 0 1017.6 1015.8 0.0
29/10:30pm 19.1 16.9 6.2 43 6.6 WNW 7 13 4 7 1017.9 1016.1 0.0
29/10:00pm 20.3 16.9 5.9 39 7.4 WSW 13 19 7 10 1017.9 1016.1 0.0
29/09:30pm 21.2 17.4 5.9 37 7.9 N 15 22 8 12 1017.6 1015.8 0.0
29/09:12pm 21.1 17.3 5.9 37 7.8 N 15 20 8 11 1017.7 1015.9 0.0
29/09:00pm 20.7 16.8 5.5 37 7.8 N 15 17 8 9 1017.6 1015.8 0.0
29/08:30pm 21.1 17.6 5.5 36 8.0 NNW 13 17 7 9 1017.6 1015.8 0.0
29/08:21pm 20.6 17.5 5.4 37 7.7 N 11 15 6 8 1017.6 1015.8 0.0
29/08:00pm 21.5 18.0 5.4 35 8.2 NNW 13 15 7 8 1017.5 1015.7 0.0
29/07:56pm 21.7 18.1 5.2 34 8.4 N 13 15 7 8 1017.4 1015.5 0.0
29/07:30pm 22.5 18.5 5.0 32 9.0 N 15 20 8 11 1017.0 1015.2 0.0
29/07:00pm 23.0 19.0 5.0 31 9.2 N 15 20 8 11 1016.5 1014.7 0.0
29/06:30pm 23.7 19.7 5.1 30 9.6 N 15 22 8 12 1016.3 1014.5 0.0
29/06:00pm 24.6 20.0 5.4 29 10.0 N 19 26 10 14 1016.0 1014.1 0.0
29/05:30pm 25.7 20.7 4.8 26 10.9 N 20 30 11 16 1015.7 1013.8 0.0
29/05:00pm 26.8 21.2 3.3 22 12.0 NNW 22 33 12 18 1015.4 1013.6 0.0
29/04:30pm 27.3 21.3 3.1 21 12.3 NNW 24 37 13 20 1015.1 1013.3 0.0
29/04:00pm 27.5 20.9 1.8 19 12.8 NNW 26 41 14 22 1015.1 1013.3 0.0
29/03:30pm 27.7 21.2 2.7 20 12.7 NNW 26 44 14 24 1015.1 1013.3 0.0
29/03:00pm 28.5 22.8 2.7 19 13.2 NNW 22 35 12 19 1015.1 1013.3 0.0
29/02:30pm 28.6 22.6 3.5 20 13.0 NNW 24 33 13 18 1015.3 1013.5 0.0
29/02:00pm 28.0 21.3 1.5 18 13.2 N 26 39 14 21 1015.7 1013.8 0.0
29/01:30pm 27.6 22.2 4.6 23 12.1 NNW 22 33 12 18 1015.9 1014.0 0.0
29/01:00pm 27.4 21.4 5.1 24 11.8 NNW 26 39 14 21 1016.4 1014.6 0.0
29/12:30pm 27.2 22.2 3.7 22 12.1 NNW 19 30 10 16 1016.7 1014.9 0.0
29/12:00pm 27.1 22.0 4.2 23 11.9 N 20 32 11 17 1017.2 1015.4 0.0
29/11:30am 26.0 21.6 4.5 25 11.2 N 17 26 9 14 1017.7 1015.9 0.0
29/11:00am 26.0 21.9 6.1 28 10.6 N 17 28 9 15 1018.1 1016.3 0.0
29/10:30am 24.3 22.7 8.7 37 8.6 NNE 7 17 4 9 1018.4 1016.6 0.0
29/10:00am 22.2 21.6 9.0 43 7.2 WSW 2 11 1 6 1018.5 1016.7 0.0
29/09:30am 21.5 19.8 10.0 48 6.4 WSW 9 17 5 9 1018.6 1016.8 0.0
29/09:00am 19.8 17.4 10.2 54 5.3 W 13 15 7 8 1018.6 1016.8 0.0
29/08:30am 18.9 16.4 11.0 60 4.4 W 15 20 8 11 1018.4 1016.6 0.0
29/08:00am 17.6 15.1 11.2 66 3.6 W 15 19 8 10 1018.1 1016.3 0.0
29/07:34am 16.4 14.2 10.7 69 3.1 W 13 19 7 10 1017.9 1016.1 0.0
29/07:30am 16.3 13.7 10.8 70 3.0 W 15 19 8 10 1017.9 1016.1 0.0
29/07:00am 14.6 13.3 10.0 74 2.5 WNW 7 9 4 5 1017.5 1015.7 0.0
29/06:30am 15.2 14.1 10.8 75 2.4 WNW 7 9 4 5 1017.0 1015.2 0.0
29/06:00am 14.8 13.7 10.6 76 2.3 WNW 7 11 4 6 1016.7 1014.9 0.0
29/05:59am 14.9 13.8 10.7 76 2.3 WNW 7 11 4 6 1016.7 1014.9 0.0
29/05:30am 15.0 13.4 10.2 73 2.6 WNW 9 11 5 6 1016.4 1014.6 0.0
29/05:16am 15.7 14.7 10.9 73 2.6 WNW 7 11 4 6 1016.3 1014.5 0.0
29/05:00am 15.4 14.2 10.4 72 2.7 WNW 7 9 4 5 1016.3 1014.5 0.0
29/04:30am 15.1 14.0 9.9 71 2.8 WNW 6 9 3 5 1016.4 1014.6 0.0
29/04:00am 15.1 14.7 9.7 70 2.9 WNW 2 9 1 5 1016.4 1014.6 0.0
29/03:30am 15.4 14.1 9.3 67 3.2 WNW 6 9 3 5 1016.5 1014.7 0.0
29/03:00am 16.2 15.4 9.8 66 3.5 WNW 4 7 2 4 1016.5 1014.7 0.0
29/02:30am 16.1 15.0 9.8 66 3.4 WNW 6 9 3 5 1016.5 1014.7 0.0
29/02:00am 16.5 16.4 9.4 63 3.8 CALM 0 0 0 0 1016.8 1015.0 0.0
29/01:30am 16.4 16.2 8.9 61 4.0 CALM 0 0 0 0 1017.1 1015.3 0.0
29/01:00am 17.0 16.0 8.9 59 4.3 WNW 4 7 2 4 1017.4 1015.5 0.0
29/12:35am 17.0 15.4 8.7 58 4.4 W 7 9 4 5 1017.6 1015.8 0.0
29/12:30am 17.1 15.5 8.8 58 4.4 W 7 9 4 5 1017.7 1015.9 0.0
29/12:23am 17.0 15.3 8.4 57 4.5 W 7 9 4 5 1017.8 1016.0 0.0
29/12:00am 17.7 16.1 8.6 55 4.8 W 7 9 4 5 1017.9 1016.1 0.0
 
Date/Time
WST
Temp
°C
App
Temp
°C
Dew
Point
Rel
Hum
%
Delta-T
°C
Wind Press
QNH
hPa
Press
MSL
hPa
Rain
since 9 am
mm
Dir
 
Spd
km/h
Gust
km/h
Spd
kts
Gust
kts
28/11:40pm 17.6 16.0 8.2 54 5.0 W 6 9 3 5 1018.0 1016.2 0.0
28/11:31pm 18.6 16.5 8.3 51 5.5 W 9 11 5 6 1018.0 1016.2 0.0
28/11:30pm 18.7 16.6 8.4 51 5.5 W 9 11 5 6 1018.0 1016.2 0.0
28/11:00pm 20.1 17.6 8.1 46 6.4 WNW 11 13 6 7 1018.1 1016.3 0.0
28/10:30pm 20.0 18.4 8.7 48 6.1 WNW 7 15 4 8 1018.3 1016.5 0.0
28/10:29pm 19.4 17.7 8.4 49 5.9 WNW 7 13 4 7 1018.3 1016.5 0.0
28/10:00pm 19.4 17.3 8.4 49 5.9 WNW 9 9 5 5 1018.5 1016.7 0.0
28/09:30pm 20.7 18.2 8.4 45 6.6 WNW 11 11 6 6 1018.7 1016.9 0.0
28/09:00pm 22.2 19.7 8.3 41 7.5 NW 11 15 6 8 1018.6 1016.8 0.0
28/08:30pm 22.7 19.9 8.4 40 7.8 NW 13 19 7 10 1018.4 1016.6 0.0
28/08:00pm 23.1 20.2 8.0 38 8.2 NNW 13 19 7 10 1018.1 1016.3 0.0
28/07:30pm 23.2 20.8 8.5 39 8.1 NW 11 17 6 9 1017.8 1016.0 0.0
28/07:00pm 24.0 20.7 8.0 36 8.7 NNW 15 20 8 11 1017.6 1015.8 0.0
28/06:30pm 24.6 20.9 6.4 31 9.7 NNW 15 22 8 12 1017.1 1015.3 0.0
28/06:00pm 25.3 20.9 6.5 30 10.1 NNW 19 26 10 14 1016.6 1014.8 0.0
28/05:30pm 26.3 21.5 5.8 27 10.9 N 20 30 11 16 1016.2 1014.4 0.0
28/05:00pm 27.0 22.0 4.7 24 11.7 N 20 30 11 16 1015.9 1014.0 0.0
28/04:30pm 27.4 22.0 4.5 23 12.0 N 22 35 12 19 1015.7 1013.8 0.0
28/04:00pm 27.6 21.7 4.0 22 12.2 N 24 35 13 19 1015.7 1013.8 0.0
28/03:30pm 28.6 23.1 4.2 21 12.8 N 22 37 12 20 1015.4 1013.6 0.0
28/03:00pm 28.0 22.1 3.7 21 12.6 NNE 24 37 13 20 1015.5 1013.7 0.0
28/02:30pm 28.4 22.4 3.3 20 12.9 N 24 39 13 21 1015.9 1014.0 0.0
28/02:00pm 28.3 22.4 3.9 21 12.7 N 24 33 13 18 1016.1 1014.3 0.0
28/01:30pm 27.9 21.8 2.9 20 12.8 N 24 33 13 18 1016.4 1014.6 0.0
28/01:00pm 27.7 21.7 3.4 21 12.5 N 24 37 13 20 1016.8 1015.0 0.0
28/12:30pm 27.2 21.3 3.7 22 12.1 NNE 24 33 13 18 1017.1 1015.3 0.0
28/12:00pm 26.1 21.4 5.1 26 11.0 NNE 19 26 10 14 1017.7 1015.9 0.0
28/11:30am 25.7 21.0 5.3 27 10.7 NNE 19 26 10 14 1018.4 1016.6 0.0
28/11:00am 24.9 20.4 4.1 26 10.6 NNE 17 26 9 14 1018.7 1016.9 0.0
28/10:30am 23.8 19.0 4.7 29 9.8 NE 19 28 10 15 1019.2 1017.4 0.0
28/10:00am 22.6 18.0 5.5 33 8.8 NE 19 30 10 16 1019.5 1017.7 0.0
28/09:30am 22.1 17.9 5.9 35 8.4 NE 17 24 9 13 1019.7 1017.9 0.0
28/09:00am 20.9 17.5 6.1 38 7.6 NNE 13 20 7 11 1019.7 1017.9 0.0
28/08:30am 19.0 18.0 5.5 41 6.8 CALM 0 6 0 3 1019.6 1017.8 0.0
28/08:00am 17.1 15.9 4.4 43 6.2 CALM 0 0 0 0 1019.3 1017.5 0.0
28/07:35am 15.3 13.9 3.8 46 5.5 CALM 0 0 0 0 1019.3 1017.5 0.0
28/07:30am 14.8 13.4 3.6 47 5.3 CALM 0 0 0 0 1019.2 1017.4 0.0
28/07:00am 12.8 11.5 4.0 55 4.1 CALM 0 0 0 0 1018.8 1017.1 0.0
28/06:30am 11.3 9.1 3.6 59 3.5 SE 4 7 2 4 1018.4 1016.6 0.0
28/06:24am 11.3 9.1 3.6 59 3.5 SE 4 7 2 4 1018.3 1016.5 0.0
28/06:00am 10.7 9.3 3.5 61 3.3 CALM 0 0 0 0 1018.2 1016.4 0.0
28/05:30am 11.5 10.1 3.5 58 3.7 CALM 0 0 0 0 1017.9 1016.1 0.0
28/05:00am 12.7 11.4 3.9 55 4.1 CALM 0 2 0 1 1017.8 1016.0 0.0
28/04:33am 11.0 9.6 3.5 60 3.4 CALM 0 0 0 0 1017.6 1015.8 0.0
28/04:30am 11.3 9.9 3.6 59 3.5 CALM 0 0 0 0 1017.6 1015.8 0.0

Other Formats:

Comma delimited format used in spreadsheet applications
http://www.bom.gov.au/fwo/IDW60801/IDW60801.99313.axf

JavaScript Object Notation format (JSON) in row-major order
http://www.bom.gov.au/fwo/IDW60801/IDW60801.99313.json